Terminal Aerodrome Forecast
Issued by NWS

Home | Current Version | Previous Version | Text Only | Print | Product List | Glossary On
Versions: 1 2 3 4 5 6 7 8 9 10 11 12 13 14 15 16
000
FTUS42 TJSJ 300548
TAFIST
TAF
TIST 300548Z 3006/0106 12009KT P6SM -RA SCT025 BKN040 BKN090
     FM301330 14012KT P6SM -RA VCTS SCT025CB SCT040 BKN050
     FM302300 10009KT P6SM FEW025 SCT050=

USA.gov is the U.S. government's official web portal to all federal, state and local government web resources and services.